sensor_id;sensor_type;location;lat;lon;timestamp;P1;durP1;ratioP1;P2;durP2;ratioP2
43337;SDS011;28933;52.492;13.434;2023-04-03T00:01:18;11.55;;;5.35;;
43337;SDS011;28933;52.492;13.434;2023-04-03T00:03:44;7.88;;;4.32;;
43337;SDS011;28933;52.492;13.434;2023-04-03T00:06:11;24.50;;;12.85;;
43337;SDS011;28933;52.492;13.434;2023-04-03T00:08:37;90.25;;;42.47;;
43337;SDS011;28933;52.492;13.434;2023-04-03T00:11:04;126.10;;;68.90;;
43337;SDS011;28933;52.492;13.434;2023-04-03T00:13:30;28.38;;;14.13;;
43337;SDS011;28933;52.492;13.434;2023-04-03T00:15:57;15.05;;;7.43;;
43337;SDS011;28933;52.492;13.434;2023-04-03T00:18:22;8.13;;;4.30;;
43337;SDS011;28933;52.492;13.434;2023-04-03T00:20:48;9.70;;;3.65;;
43337;SDS011;28933;52.492;13.434;2023-04-03T00:23:14;9.93;;;3.05;;
43337;SDS011;28933;52.492;13.434;2023-04-03T00:25:40;9.50;;;4.72;;
43337;SDS011;28933;52.492;13.434;2023-04-03T00:28:06;5.32;;;3.10;;
43337;SDS011;28933;52.492;13.434;2023-04-03T00:30:32;12.82;;;6.85;;
43337;SDS011;28933;52.492;13.434;2023-04-03T00:32:58;8.45;;;4.35;;
43337;SDS011;28933;52.492;13.434;2023-04-03T00:35:25;15.35;;;9.25;;
43337;SDS011;28933;52.492;13.434;2023-04-03T00:37:52;8.77;;;4.85;;
43337;SDS011;28933;52.492;13.434;2023-04-03T00:40:20;9.60;;;6.35;;
43337;SDS011;28933;52.492;13.434;2023-04-03T00:42:48;9.82;;;4.55;;
43337;SDS011;28933;52.492;13.434;2023-04-03T00:48:08;8.52;;;4.70;;
43337;SDS011;28933;52.492;13.434;2023-04-03T00:50:38;16.85;;;10.02;;
43337;SDS011;28933;52.492;13.434;2023-04-03T00:53:06;8.25;;;5.30;;
43337;SDS011;28933;52.492;13.434;2023-04-03T00:55:34;9.77;;;5.10;;
43337;SDS011;28933;52.492;13.434;2023-04-03T00:58:01;8.05;;;4.68;;
43337;SDS011;28933;52.492;13.434;2023-04-03T01:00:27;7.55;;;3.80;;
43337;SDS011;28933;52.492;13.434;2023-04-03T01:02:53;12.38;;;5.75;;
43337;SDS011;28933;52.492;13.434;2023-04-03T01:05:22;5.70;;;3.78;;
43337;SDS011;28933;52.492;13.434;2023-04-03T01:07:48;7.47;;;5.15;;
43337;SDS011;28933;52.492;13.434;2023-04-03T01:10:16;10.40;;;6.05;;
43337;SDS011;28933;52.492;13.434;2023-04-03T01:12:45;8.57;;;3.80;;
43337;SDS011;28933;52.492;13.434;2023-04-03T01:15:21;8.27;;;4.90;;
43337;SDS011;28933;52.492;13.434;2023-04-03T01:17:50;12.68;;;6.45;;
43337;SDS011;28933;52.492;13.434;2023-04-03T01:25:43;8.95;;;4.43;;
43337;SDS011;28933;52.492;13.434;2023-04-03T01:28:15;10.30;;;5.43;;
43337;SDS011;28933;52.492;13.434;2023-04-03T01:33:33;13.93;;;8.65;;
43337;SDS011;28933;52.492;13.434;2023-04-03T01:35:59;13.73;;;7.85;;
43337;SDS011;28933;52.492;13.434;2023-04-03T01:38:24;12.57;;;6.15;;
43337;SDS011;28933;52.492;13.434;2023-04-03T01:40:50;26.50;;;16.55;;
43337;SDS011;28933;52.492;13.434;2023-04-03T01:43:16;14.70;;;8.75;;
43337;SDS011;28933;52.492;13.434;2023-04-03T01:45:43;12.98;;;8.77;;
43337;SDS011;28933;52.492;13.434;2023-04-03T01:48:09;5.53;;;3.45;;
43337;SDS011;28933;52.492;13.434;2023-04-03T01:50:35;7.03;;;3.25;;
43337;SDS011;28933;52.492;13.434;2023-04-03T01:53:00;8.07;;;4.20;;
43337;SDS011;28933;52.492;13.434;2023-04-03T01:55:26;7.25;;;3.35;;
43337;SDS011;28933;52.492;13.434;2023-04-03T01:57:52;8.48;;;3.60;;
43337;SDS011;28933;52.492;13.434;2023-04-03T02:00:18;5.70;;;3.22;;
43337;SDS011;28933;52.492;13.434;2023-04-03T02:02:43;13.45;;;5.43;;
43337;SDS011;28933;52.492;13.434;2023-04-03T02:05:09;8.98;;;2.80;;
43337;SDS011;28933;52.492;13.434;2023-04-03T02:07:35;9.68;;;4.47;;
43337;SDS011;28933;52.492;13.434;2023-04-03T02:10:01;11.20;;;4.43;;
43337;SDS011;28933;52.492;13.434;2023-04-03T02:12:28;12.07;;;5.00;;
43337;SDS011;28933;52.492;13.434;2023-04-03T02:14:54;7.15;;;4.30;;
43337;SDS011;28933;52.492;13.434;2023-04-03T02:17:20;5.53;;;2.60;;
43337;SDS011;28933;52.492;13.434;2023-04-03T02:19:45;6.90;;;3.58;;
43337;SDS011;28933;52.492;13.434;2023-04-03T02:22:11;6.30;;;3.25;;
43337;SDS011;28933;52.492;13.434;2023-04-03T02:24:37;9.35;;;3.53;;
43337;SDS011;28933;52.492;13.434;2023-04-03T02:27:05;14.00;;;5.57;;
43337;SDS011;28933;52.492;13.434;2023-04-03T02:29:30;12.23;;;4.43;;
43337;SDS011;28933;52.492;13.434;2023-04-03T02:31:56;13.57;;;5.63;;
43337;SDS011;28933;52.492;13.434;2023-04-03T02:34:21;14.13;;;7.72;;
43337;SDS011;28933;52.492;13.434;2023-04-03T02:36:47;14.23;;;6.82;;
43337;SDS011;28933;52.492;13.434;2023-04-03T02:39:13;10.65;;;6.40;;
43337;SDS011;28933;52.492;13.434;2023-04-03T02:41:39;11.43;;;7.50;;
43337;SDS011;28933;52.492;13.434;2023-04-03T02:44:08;12.57;;;6.93;;
43337;SDS011;28933;52.492;13.434;2023-04-03T02:46:35;7.13;;;4.07;;
43337;SDS011;28933;52.492;13.434;2023-04-03T02:49:01;9.25;;;4.00;;
43337;SDS011;28933;52.492;13.434;2023-04-03T02:51:27;6.60;;;4.75;;
43337;SDS011;28933;52.492;13.434;2023-04-03T02:53:52;8.52;;;6.10;;
43337;SDS011;28933;52.492;13.434;2023-04-03T02:56:18;8.20;;;4.30;;
43337;SDS011;28933;52.492;13.434;2023-04-03T02:58:45;6.43;;;4.25;;
43337;SDS011;28933;52.492;13.434;2023-04-03T03:01:11;6.28;;;4.22;;
43337;SDS011;28933;52.492;13.434;2023-04-03T03:03:37;5.68;;;2.80;;
43337;SDS011;28933;52.492;13.434;2023-04-03T03:06:03;8.10;;;4.55;;
43337;SDS011;28933;52.492;13.434;2023-04-03T03:08:33;7.65;;;3.10;;
43337;SDS011;28933;52.492;13.434;2023-04-03T03:11:00;7.75;;;4.32;;
43337;SDS011;28933;52.492;13.434;2023-04-03T03:13:26;9.10;;;4.47;;
43337;SDS011;28933;52.492;13.434;2023-04-03T03:15:52;8.88;;;5.05;;
43337;SDS011;28933;52.492;13.434;2023-04-03T03:18:17;6.63;;;4.40;;
43337;SDS011;28933;52.492;13.434;2023-04-03T03:20:43;8.07;;;5.28;;
43337;SDS011;28933;52.492;13.434;2023-04-03T03:23:09;13.05;;;6.53;;
43337;SDS011;28933;52.492;13.434;2023-04-03T03:25:39;13.05;;;6.13;;
43337;SDS011;28933;52.492;13.434;2023-04-03T03:28:05;11.50;;;6.30;;
43337;SDS011;28933;52.492;13.434;2023-04-03T03:30:32;12.77;;;7.00;;
43337;SDS011;28933;52.492;13.434;2023-04-03T03:32:58;10.10;;;4.95;;
43337;SDS011;28933;52.492;13.434;2023-04-03T03:35:24;12.43;;;5.00;;
43337;SDS011;28933;52.492;13.434;2023-04-03T03:37:50;8.93;;;3.95;;
43337;SDS011;28933;52.492;13.434;2023-04-03T03:40:16;8.68;;;3.15;;
43337;SDS011;28933;52.492;13.434;2023-04-03T03:42:42;5.88;;;3.03;;
43337;SDS011;28933;52.492;13.434;2023-04-03T03:45:07;9.35;;;3.00;;
43337;SDS011;28933;52.492;13.434;2023-04-03T03:47:34;4.95;;;3.00;;
43337;SDS011;28933;52.492;13.434;2023-04-03T03:50:00;4.85;;;2.35;;
43337;SDS011;28933;52.492;13.434;2023-04-03T03:52:26;7.88;;;2.90;;
43337;SDS011;28933;52.492;13.434;2023-04-03T03:54:52;3.53;;;1.90;;
43337;SDS011;28933;52.492;13.434;2023-04-03T03:57:18;4.88;;;2.67;;
43337;SDS011;28933;52.492;13.434;2023-04-03T03:59:43;9.57;;;3.88;;
43337;SDS011;28933;52.492;13.434;2023-04-03T04:02:09;4.47;;;2.15;;
43337;SDS011;28933;52.492;13.434;2023-04-03T04:04:36;7.35;;;2.72;;
43337;SDS011;28933;52.492;13.434;2023-04-03T04:07:02;9.50;;;2.20;;
43337;SDS011;28933;52.492;13.434;2023-04-03T04:09:27;6.43;;;2.38;;
43337;SDS011;28933;52.492;13.434;2023-04-03T04:11:53;5.72;;;2.20;;
43337;SDS011;28933;52.492;13.434;2023-04-03T04:14:20;4.32;;;2.25;;
43337;SDS011;28933;52.492;13.434;2023-04-03T04:16:46;6.55;;;1.90;;
43337;SDS011;28933;52.492;13.434;2023-04-03T04:19:13;6.65;;;1.92;;
43337;SDS011;28933;52.492;13.434;2023-04-03T04:21:38;4.40;;;2.00;;
43337;SDS011;28933;52.492;13.434;2023-04-03T04:24:04;6.63;;;2.20;;
43337;SDS011;28933;52.492;13.434;2023-04-03T04:26:31;6.20;;;2.75;;
43337;SDS011;28933;52.492;13.434;2023-04-03T04:28:57;7.00;;;2.30;;
43337;SDS011;28933;52.492;13.434;2023-04-03T04:31:22;5.55;;;1.98;;
43337;SDS011;28933;52.492;13.434;2023-04-03T04:33:48;5.80;;;2.40;;
43337;SDS011;28933;52.492;13.434;2023-04-03T04:36:13;5.15;;;1.90;;
43337;SDS011;28933;52.492;13.434;2023-04-03T04:38:40;3.72;;;1.85;;
43337;SDS011;28933;52.492;13.434;2023-04-03T04:41:06;9.10;;;3.05;;
43337;SDS011;28933;52.492;13.434;2023-04-03T04:43:32;5.30;;;1.65;;
43337;SDS011;28933;52.492;13.434;2023-04-03T04:46:05;3.85;;;1.83;;
43337;SDS011;28933;52.492;13.434;2023-04-03T04:48:36;5.10;;;2.33;;
43337;SDS011;28933;52.492;13.434;2023-04-03T04:51:02;5.15;;;2.30;;
43337;SDS011;28933;52.492;13.434;2023-04-03T04:53:28;4.88;;;2.25;;
43337;SDS011;28933;52.492;13.434;2023-04-03T04:55:54;5.93;;;2.47;;
43337;SDS011;28933;52.492;13.434;2023-04-03T04:58:20;6.68;;;2.05;;
43337;SDS011;28933;52.492;13.434;2023-04-03T05:00:46;3.75;;;1.85;;
43337;SDS011;28933;52.492;13.434;2023-04-03T05:03:12;5.93;;;2.00;;
43337;SDS011;28933;52.492;13.434;2023-04-03T05:05:38;7.40;;;2.25;;
43337;SDS011;28933;52.492;13.434;2023-04-03T05:08:04;4.85;;;2.45;;
43337;SDS011;28933;52.492;13.434;2023-04-03T05:10:30;4.95;;;2.50;;
43337;SDS011;28933;52.492;13.434;2023-04-03T05:12:57;9.45;;;2.65;;
43337;SDS011;28933;52.492;13.434;2023-04-03T05:15:23;7.20;;;2.35;;
43337;SDS011;28933;52.492;13.434;2023-04-03T05:17:48;5.90;;;2.15;;
43337;SDS011;28933;52.492;13.434;2023-04-03T05:20:15;3.60;;;2.08;;
43337;SDS011;28933;52.492;13.434;2023-04-03T05:22:41;9.07;;;2.65;;
43337;SDS011;28933;52.492;13.434;2023-04-03T05:25:06;4.85;;;2.22;;
43337;SDS011;28933;52.492;13.434;2023-04-03T05:27:32;7.15;;;1.83;;
43337;SDS011;28933;52.492;13.434;2023-04-03T05:29:58;7.60;;;2.47;;
43337;SDS011;28933;52.492;13.434;2023-04-03T05:32:24;5.78;;;2.50;;
43337;SDS011;28933;52.492;13.434;2023-04-03T05:34:52;5.53;;;1.95;;
43337;SDS011;28933;52.492;13.434;2023-04-03T05:37:18;4.85;;;2.60;;
43337;SDS011;28933;52.492;13.434;2023-04-03T05:39:44;5.03;;;2.10;;
43337;SDS011;28933;52.492;13.434;2023-04-03T05:42:10;8.18;;;2.88;;
43337;SDS011;28933;52.492;13.434;2023-04-03T05:44:36;5.45;;;1.92;;
43337;SDS011;28933;52.492;13.434;2023-04-03T05:47:02;5.85;;;2.35;;
43337;SDS011;28933;52.492;13.434;2023-04-03T05:49:28;5.55;;;2.42;;
43337;SDS011;28933;52.492;13.434;2023-04-03T05:51:54;4.35;;;1.80;;
43337;SDS011;28933;52.492;13.434;2023-04-03T05:54:21;6.40;;;1.83;;
43337;SDS011;28933;52.492;13.434;2023-04-03T05:56:52;5.57;;;1.90;;
43337;SDS011;28933;52.492;13.434;2023-04-03T05:59:19;5.97;;;2.08;;
43337;SDS011;28933;52.492;13.434;2023-04-03T06:01:45;7.53;;;2.17;;
43337;SDS011;28933;52.492;13.434;2023-04-03T06:04:13;5.88;;;2.10;;
43337;SDS011;28933;52.492;13.434;2023-04-03T06:06:43;4.18;;;1.85;;
43337;SDS011;28933;52.492;13.434;2023-04-03T06:09:08;7.38;;;2.75;;
43337;SDS011;28933;52.492;13.434;2023-04-03T06:11:34;4.35;;;2.00;;
43337;SDS011;28933;52.492;13.434;2023-04-03T06:14:00;6.35;;;2.60;;
43337;SDS011;28933;52.492;13.434;2023-04-03T06:16:26;6.25;;;2.30;;
43337;SDS011;28933;52.492;13.434;2023-04-03T06:18:52;3.58;;;2.20;;
43337;SDS011;28933;52.492;13.434;2023-04-03T06:21:17;8.10;;;2.60;;
43337;SDS011;28933;52.492;13.434;2023-04-03T06:23:43;6.30;;;2.47;;
43337;SDS011;28933;52.492;13.434;2023-04-03T06:26:09;5.43;;;2.00;;
43337;SDS011;28933;52.492;13.434;2023-04-03T06:28:35;5.55;;;2.08;;
43337;SDS011;28933;52.492;13.434;2023-04-03T06:31:04;4.78;;;1.98;;
43337;SDS011;28933;52.492;13.434;2023-04-03T06:33:30;5.13;;;2.08;;
43337;SDS011;28933;52.492;13.434;2023-04-03T06:35:57;5.32;;;2.30;;
43337;SDS011;28933;52.492;13.434;2023-04-03T06:38:23;6.55;;;2.70;;
43337;SDS011;28933;52.492;13.434;2023-04-03T06:40:49;9.48;;;2.13;;
43337;SDS011;28933;52.492;13.434;2023-04-03T06:43:16;6.68;;;2.13;;
43337;SDS011;28933;52.492;13.434;2023-04-03T06:45:42;4.43;;;2.40;;
43337;SDS011;28933;52.492;13.434;2023-04-03T06:48:08;3.60;;;1.77;;
43337;SDS011;28933;52.492;13.434;2023-04-03T06:50:34;3.42;;;1.80;;
43337;SDS011;28933;52.492;13.434;2023-04-03T06:53:00;3.70;;;1.88;;
43337;SDS011;28933;52.492;13.434;2023-04-03T06:55:26;7.18;;;2.15;;
43337;SDS011;28933;52.492;13.434;2023-04-03T06:57:51;5.03;;;1.90;;
43337;SDS011;28933;52.492;13.434;2023-04-03T07:00:17;3.30;;;1.80;;
43337;SDS011;28933;52.492;13.434;2023-04-03T07:02:44;6.15;;;2.22;;
43337;SDS011;28933;52.492;13.434;2023-04-03T07:05:10;4.80;;;2.13;;
43337;SDS011;28933;52.492;13.434;2023-04-03T07:07:36;5.13;;;1.90;;
43337;SDS011;28933;52.492;13.434;2023-04-03T07:10:02;3.28;;;1.60;;
43337;SDS011;28933;52.492;13.434;2023-04-03T07:12:29;6.13;;;2.00;;
43337;SDS011;28933;52.492;13.434;2023-04-03T07:14:54;7.97;;;1.92;;
43337;SDS011;28933;52.492;13.434;2023-04-03T07:17:20;4.10;;;2.00;;
43337;SDS011;28933;52.492;13.434;2023-04-03T07:19:46;4.30;;;1.90;;
43337;SDS011;28933;52.492;13.434;2023-04-03T07:22:11;5.60;;;2.40;;
43337;SDS011;28933;52.492;13.434;2023-04-03T07:24:38;5.50;;;2.03;;
43337;SDS011;28933;52.492;13.434;2023-04-03T07:27:03;4.88;;;2.20;;
43337;SDS011;28933;52.492;13.434;2023-04-03T07:29:29;6.93;;;2.42;;
43337;SDS011;28933;52.492;13.434;2023-04-03T07:31:55;4.45;;;1.40;;
43337;SDS011;28933;52.492;13.434;2023-04-03T07:34:21;4.70;;;1.58;;
43337;SDS011;28933;52.492;13.434;2023-04-03T07:36:47;3.60;;;2.10;;
43337;SDS011;28933;52.492;13.434;2023-04-03T07:39:12;5.22;;;1.50;;
43337;SDS011;28933;52.492;13.434;2023-04-03T07:41:38;5.20;;;1.75;;
43337;SDS011;28933;52.492;13.434;2023-04-03T07:44:04;4.40;;;1.90;;
43337;SDS011;28933;52.492;13.434;2023-04-03T07:46:30;5.07;;;1.90;;
43337;SDS011;28933;52.492;13.434;2023-04-03T07:48:56;3.85;;;2.22;;
43337;SDS011;28933;52.492;13.434;2023-04-03T07:51:22;2.75;;;1.77;;
43337;SDS011;28933;52.492;13.434;2023-04-03T07:53:49;8.18;;;2.17;;
43337;SDS011;28933;52.492;13.434;2023-04-03T07:56:16;3.63;;;1.73;;
43337;SDS011;28933;52.492;13.434;2023-04-03T07:58:42;3.65;;;1.40;;
43337;SDS011;28933;52.492;13.434;2023-04-03T08:01:07;3.08;;;1.55;;
43337;SDS011;28933;52.492;13.434;2023-04-03T08:03:34;4.25;;;1.70;;
43337;SDS011;28933;52.492;13.434;2023-04-03T08:06:01;8.57;;;2.60;;
43337;SDS011;28933;52.492;13.434;2023-04-03T08:08:28;3.83;;;1.73;;
43337;SDS011;28933;52.492;13.434;2023-04-03T08:10:55;5.35;;;2.35;;
43337;SDS011;28933;52.492;13.434;2023-04-03T08:13:23;3.85;;;2.42;;
43337;SDS011;28933;52.492;13.434;2023-04-03T08:15:48;6.72;;;2.13;;
43337;SDS011;28933;52.492;13.434;2023-04-03T08:18:14;2.50;;;1.60;;
43337;SDS011;28933;52.492;13.434;2023-04-03T08:20:41;5.90;;;1.50;;
43337;SDS011;28933;52.492;13.434;2023-04-03T08:23:07;4.15;;;1.80;;
43337;SDS011;28933;52.492;13.434;2023-04-03T08:25:34;4.40;;;2.00;;
43337;SDS011;28933;52.492;13.434;2023-04-03T08:28:07;3.92;;;1.95;;
43337;SDS011;28933;52.492;13.434;2023-04-03T08:30:33;4.30;;;1.77;;
43337;SDS011;28933;52.492;13.434;2023-04-03T08:33:02;5.22;;;1.95;;
43337;SDS011;28933;52.492;13.434;2023-04-03T08:35:28;6.30;;;2.60;;
43337;SDS011;28933;52.492;13.434;2023-04-03T08:37:54;3.80;;;1.77;;
43337;SDS011;28933;52.492;13.434;2023-04-03T08:40:20;4.63;;;2.25;;
43337;SDS011;28933;52.492;13.434;2023-04-03T08:45:13;3.40;;;1.85;;
43337;SDS011;28933;52.492;13.434;2023-04-03T08:50:30;4.10;;;1.95;;
43337;SDS011;28933;52.492;13.434;2023-04-03T08:53:01;5.28;;;1.80;;
43337;SDS011;28933;52.492;13.434;2023-04-03T08:55:39;6.55;;;2.20;;
43337;SDS011;28933;52.492;13.434;2023-04-03T08:58:26;4.97;;;2.22;;
43337;SDS011;28933;52.492;13.434;2023-04-03T09:00:59;3.13;;;2.17;;
43337;SDS011;28933;52.492;13.434;2023-04-03T09:03:29;6.70;;;2.67;;
43337;SDS011;28933;52.492;13.434;2023-04-03T09:06:02;8.48;;;2.90;;
43337;SDS011;28933;52.492;13.434;2023-04-03T09:08:32;5.43;;;1.92;;
43337;SDS011;28933;52.492;13.434;2023-04-03T09:11:26;6.22;;;2.40;;
43337;SDS011;28933;52.492;13.434;2023-04-03T09:24:47;7.97;;;3.30;;
43337;SDS011;28933;52.492;13.434;2023-04-03T09:27:34;6.97;;;3.00;;
43337;SDS011;28933;52.492;13.434;2023-04-03T09:30:00;4.60;;;3.08;;
43337;SDS011;28933;52.492;13.434;2023-04-03T09:32:31;9.95;;;4.55;;
43337;SDS011;28933;52.492;13.434;2023-04-03T09:35:01;11.90;;;3.63;;
43337;SDS011;28933;52.492;13.434;2023-04-03T09:40:03;5.35;;;3.25;;
43337;SDS011;28933;52.492;13.434;2023-04-03T09:42:30;9.38;;;4.97;;
43337;SDS011;28933;52.492;13.434;2023-04-03T09:44:58;8.07;;;5.78;;
43337;SDS011;28933;52.492;13.434;2023-04-03T09:47:30;7.97;;;3.75;;
43337;SDS011;28933;52.492;13.434;2023-04-03T09:52:43;5.00;;;3.75;;
43337;SDS011;28933;52.492;13.434;2023-04-03T09:55:17;5.25;;;3.70;;
43337;SDS011;28933;52.492;13.434;2023-04-03T09:57:55;7.63;;;5.38;;
43337;SDS011;28933;52.492;13.434;2023-04-03T10:00:25;8.98;;;6.97;;
43337;SDS011;28933;52.492;13.434;2023-04-03T10:02:56;5.50;;;3.05;;
43337;SDS011;28933;52.492;13.434;2023-04-03T10:08:20;4.95;;;2.60;;
43337;SDS011;28933;52.492;13.434;2023-04-03T10:11:05;3.38;;;1.80;;
43337;SDS011;28933;52.492;13.434;2023-04-03T10:16:43;2.80;;;1.65;;
43337;SDS011;28933;52.492;13.434;2023-04-03T10:24:47;2.97;;;1.65;;
43337;SDS011;28933;52.492;13.434;2023-04-03T10:44:20;5.72;;;2.75;;
43337;SDS011;28933;52.492;13.434;2023-04-03T10:46:47;6.95;;;2.45;;
43337;SDS011;28933;52.492;13.434;2023-04-03T10:54:51;4.15;;;1.90;;
43337;SDS011;28933;52.492;13.434;2023-04-03T10:57:27;4.68;;;2.15;;
43337;SDS011;28933;52.492;13.434;2023-04-03T10:59:58;8.30;;;2.97;;
43337;SDS011;28933;52.492;13.434;2023-04-03T11:02:49;3.40;;;2.03;;
43337;SDS011;28933;52.492;13.434;2023-04-03T11:05:36;4.38;;;2.50;;
43337;SDS011;28933;52.492;13.434;2023-04-03T11:08:24;6.70;;;3.05;;
43337;SDS011;28933;52.492;13.434;2023-04-03T11:10:59;4.25;;;2.30;;
43337;SDS011;28933;52.492;13.434;2023-04-03T11:13:34;6.63;;;3.38;;
43337;SDS011;28933;52.492;13.434;2023-04-03T11:16:06;4.35;;;2.00;;
43337;SDS011;28933;52.492;13.434;2023-04-03T11:18:35;4.43;;;1.63;;
43337;SDS011;28933;52.492;13.434;2023-04-03T11:21:17;3.25;;;2.13;;
43337;SDS011;28933;52.492;13.434;2023-04-03T11:23:47;5.78;;;2.80;;
43337;SDS011;28933;52.492;13.434;2023-04-03T11:26:14;5.40;;;3.15;;
43337;SDS011;28933;52.492;13.434;2023-04-03T11:28:43;7.43;;;4.53;;
43337;SDS011;28933;52.492;13.434;2023-04-03T11:31:15;5.53;;;2.42;;
43337;SDS011;28933;52.492;13.434;2023-04-03T11:36:33;6.63;;;2.30;;
43337;SDS011;28933;52.492;13.434;2023-04-03T11:44:51;3.85;;;2.92;;
43337;SDS011;28933;52.492;13.434;2023-04-03T11:47:58;3.53;;;2.00;;
43337;SDS011;28933;52.492;13.434;2023-04-03T11:52:56;5.22;;;2.17;;
43337;SDS011;28933;52.492;13.434;2023-04-03T12:13:40;4.57;;;2.47;;
43337;SDS011;28933;52.492;13.434;2023-04-03T12:19:03;3.22;;;1.75;;
43337;SDS011;28933;52.492;13.434;2023-04-03T12:24:22;5.43;;;2.00;;
43337;SDS011;28933;52.492;13.434;2023-04-03T12:40:51;7.30;;;2.00;;
43337;SDS011;28933;52.492;13.434;2023-04-03T12:46:15;2.80;;;1.50;;
43337;SDS011;28933;52.492;13.434;2023-04-03T12:51:09;4.22;;;1.92;;
43337;SDS011;28933;52.492;13.434;2023-04-03T12:53:56;6.77;;;4.33;;
43337;SDS011;28933;52.492;13.434;2023-04-03T12:56:27;14.13;;;7.45;;
43337;SDS011;28933;52.492;13.434;2023-04-03T12:59:19;9.50;;;6.40;;
43337;SDS011;28933;52.492;13.434;2023-04-03T13:01:54;7.15;;;3.83;;
43337;SDS011;28933;52.492;13.434;2023-04-03T13:04:24;7.25;;;4.50;;
43337;SDS011;28933;52.492;13.434;2023-04-03T13:06:50;3.58;;;2.38;;
43337;SDS011;28933;52.492;13.434;2023-04-03T13:09:20;4.82;;;2.13;;
43337;SDS011;28933;52.492;13.434;2023-04-03T13:11:49;4.22;;;2.50;;
43337;SDS011;28933;52.492;13.434;2023-04-03T13:14:17;2.83;;;1.80;;
43337;SDS011;28933;52.492;13.434;2023-04-03T13:16:52;4.60;;;2.58;;
43337;SDS011;28933;52.492;13.434;2023-04-03T13:19:39;6.15;;;4.00;;
43337;SDS011;28933;52.492;13.434;2023-04-03T13:22:08;6.13;;;4.25;;
43337;SDS011;28933;52.492;13.434;2023-04-03T13:24:59;10.80;;;5.40;;
43337;SDS011;28933;52.492;13.434;2023-04-03T13:27:29;11.15;;;7.32;;
43337;SDS011;28933;52.492;13.434;2023-04-03T13:29:57;7.63;;;4.75;;
43337;SDS011;28933;52.492;13.434;2023-04-03T13:32:25;6.22;;;3.53;;
43337;SDS011;28933;52.492;13.434;2023-04-03T13:34:52;10.48;;;5.30;;
43337;SDS011;28933;52.492;13.434;2023-04-03T13:37:28;4.32;;;2.53;;
43337;SDS011;28933;52.492;13.434;2023-04-03T13:42:35;5.63;;;3.42;;
43337;SDS011;28933;52.492;13.434;2023-04-03T13:50:15;4.20;;;2.13;;
43337;SDS011;28933;52.492;13.434;2023-04-03T13:52:54;7.65;;;3.83;;
43337;SDS011;28933;52.492;13.434;2023-04-03T13:55:29;4.00;;;2.17;;
43337;SDS011;28933;52.492;13.434;2023-04-03T14:00:39;4.60;;;3.67;;
43337;SDS011;28933;52.492;13.434;2023-04-03T14:03:20;3.60;;;2.22;;
43337;SDS011;28933;52.492;13.434;2023-04-03T14:05:54;5.75;;;3.00;;
43337;SDS011;28933;52.492;13.434;2023-04-03T14:08:20;3.20;;;1.73;;
43337;SDS011;28933;52.492;13.434;2023-04-03T14:10:46;3.28;;;1.42;;
43337;SDS011;28933;52.492;13.434;2023-04-03T14:13:16;3.05;;;1.80;;
43337;SDS011;28933;52.492;13.434;2023-04-03T14:15:44;5.38;;;2.95;;
43337;SDS011;28933;52.492;13.434;2023-04-03T14:18:11;3.45;;;1.85;;
43337;SDS011;28933;52.492;13.434;2023-04-03T14:20:39;3.08;;;1.35;;
43337;SDS011;28933;52.492;13.434;2023-04-03T14:23:04;6.13;;;2.03;;
43337;SDS011;28933;52.492;13.434;2023-04-03T14:25:31;7.72;;;4.28;;
43337;SDS011;28933;52.492;13.434;2023-04-03T14:27:57;5.07;;;3.08;;
43337;SDS011;28933;52.492;13.434;2023-04-03T14:30:26;5.90;;;2.70;;
43337;SDS011;28933;52.492;13.434;2023-04-03T14:32:55;6.00;;;3.33;;
43337;SDS011;28933;52.492;13.434;2023-04-03T14:35:21;5.65;;;2.50;;
43337;SDS011;28933;52.492;13.434;2023-04-03T14:37:47;3.13;;;2.05;;
43337;SDS011;28933;52.492;13.434;2023-04-03T14:40:14;4.60;;;3.15;;
43337;SDS011;28933;52.492;13.434;2023-04-03T14:42:44;7.00;;;2.42;;
43337;SDS011;28933;52.492;13.434;2023-04-03T14:45:10;4.45;;;2.78;;
43337;SDS011;28933;52.492;13.434;2023-04-03T14:47:44;4.40;;;2.85;;
43337;SDS011;28933;52.492;13.434;2023-04-03T14:50:17;3.53;;;2.33;;
43337;SDS011;28933;52.492;13.434;2023-04-03T14:52:46;6.03;;;2.97;;
43337;SDS011;28933;52.492;13.434;2023-04-03T14:55:16;6.28;;;3.90;;
43337;SDS011;28933;52.492;13.434;2023-04-03T14:57:44;6.03;;;3.13;;
43337;SDS011;28933;52.492;13.434;2023-04-03T15:00:12;4.88;;;2.78;;
43337;SDS011;28933;52.492;13.434;2023-04-03T15:02:39;3.40;;;2.22;;
43337;SDS011;28933;52.492;13.434;2023-04-03T15:05:07;4.07;;;2.72;;
43337;SDS011;28933;52.492;13.434;2023-04-03T15:07:35;4.13;;;2.33;;
43337;SDS011;28933;52.492;13.434;2023-04-03T15:10:06;3.80;;;2.38;;
43337;SDS011;28933;52.492;13.434;2023-04-03T15:12:40;5.88;;;2.55;;
43337;SDS011;28933;52.492;13.434;2023-04-03T15:15:07;5.53;;;2.97;;
43337;SDS011;28933;52.492;13.434;2023-04-03T15:17:33;5.18;;;2.90;;
43337;SDS011;28933;52.492;13.434;2023-04-03T15:19:59;6.63;;;3.28;;
43337;SDS011;28933;52.492;13.434;2023-04-03T15:22:25;4.63;;;2.80;;
43337;SDS011;28933;52.492;13.434;2023-04-03T15:24:51;6.50;;;3.45;;
43337;SDS011;28933;52.492;13.434;2023-04-03T15:27:17;6.18;;;3.70;;
43337;SDS011;28933;52.492;13.434;2023-04-03T15:29:43;6.15;;;3.83;;
43337;SDS011;28933;52.492;13.434;2023-04-03T15:32:09;4.93;;;3.10;;
43337;SDS011;28933;52.492;13.434;2023-04-03T15:34:35;5.38;;;3.67;;
43337;SDS011;28933;52.492;13.434;2023-04-03T15:37:02;4.05;;;2.55;;
43337;SDS011;28933;52.492;13.434;2023-04-03T15:39:27;8.15;;;3.10;;
43337;SDS011;28933;52.492;13.434;2023-04-03T15:41:54;5.03;;;3.42;;
43337;SDS011;28933;52.492;13.434;2023-04-03T15:44:21;5.45;;;3.15;;
43337;SDS011;28933;52.492;13.434;2023-04-03T15:46:47;10.23;;;5.47;;
43337;SDS011;28933;52.492;13.434;2023-04-03T15:49:16;6.55;;;4.50;;
43337;SDS011;28933;52.492;13.434;2023-04-03T15:51:43;6.25;;;2.97;;
43337;SDS011;28933;52.492;13.434;2023-04-03T15:54:09;4.75;;;3.03;;
43337;SDS011;28933;52.492;13.434;2023-04-03T15:56:35;7.00;;;2.78;;
43337;SDS011;28933;52.492;13.434;2023-04-03T15:59:00;7.20;;;5.45;;
43337;SDS011;28933;52.492;13.434;2023-04-03T16:01:26;4.95;;;2.65;;
43337;SDS011;28933;52.492;13.434;2023-04-03T16:03:53;6.32;;;2.35;;
43337;SDS011;28933;52.492;13.434;2023-04-03T16:06:19;3.88;;;2.20;;
43337;SDS011;28933;52.492;13.434;2023-04-03T16:08:45;4.57;;;2.28;;
43337;SDS011;28933;52.492;13.434;2023-04-03T16:11:12;5.72;;;3.13;;
43337;SDS011;28933;52.492;13.434;2023-04-03T16:13:38;7.28;;;2.95;;
43337;SDS011;28933;52.492;13.434;2023-04-03T16:16:04;5.45;;;2.92;;
43337;SDS011;28933;52.492;13.434;2023-04-03T16:18:30;3.83;;;1.50;;
43337;SDS011;28933;52.492;13.434;2023-04-03T16:20:56;4.43;;;2.25;;
43337;SDS011;28933;52.492;13.434;2023-04-03T16:23:22;6.95;;;2.78;;
43337;SDS011;28933;52.492;13.434;2023-04-03T16:25:48;4.03;;;2.17;;
43337;SDS011;28933;52.492;13.434;2023-04-03T16:28:15;5.25;;;3.25;;
43337;SDS011;28933;52.492;13.434;2023-04-03T16:30:42;4.20;;;2.60;;
43337;SDS011;28933;52.492;13.434;2023-04-03T16:33:09;9.38;;;4.57;;
43337;SDS011;28933;52.492;13.434;2023-04-03T16:35:36;8.15;;;5.22;;
43337;SDS011;28933;52.492;13.434;2023-04-03T16:38:02;6.57;;;3.00;;
43337;SDS011;28933;52.492;13.434;2023-04-03T16:40:28;5.85;;;2.40;;
43337;SDS011;28933;52.492;13.434;2023-04-03T16:42:54;3.72;;;2.78;;
43337;SDS011;28933;52.492;13.434;2023-04-03T16:45:20;4.88;;;2.00;;
43337;SDS011;28933;52.492;13.434;2023-04-03T16:47:46;6.05;;;3.15;;
43337;SDS011;28933;52.492;13.434;2023-04-03T16:50:11;5.55;;;2.38;;